Time;durP1;ratioP1;P1;durP2;ratioP2;P2;SDS_P1;SDS_P2;PMS_P1;PMS_P2;Temp;Humidity;BMP_temperature;BMP_pressure;BME280_temperature;BME280_humidity;BME280_pressure;Samples;Min_cycle;Max_cycle;Signal;HPM_P1;HPM_P2
2023/01/23 00:02:25;;;;;;;21.30;7.30;;;;;;;0.08;100.00;102689.79;106556;1287;58338;-84
2023/01/23 00:04:50;;;;;;;21.60;7.70;;;;;;;0.08;100.00;102689.06;106347;1288;58306;-84
2023/01/23 00:07:16;;;;;;;23.10;7.20;;;;;;;0.10;100.00;102691.05;106352;1289;58242;-84
2023/01/23 00:09:41;;;;;;;21.70;6.70;;;;;;;0.12;100.00;102694.39;106322;1289;58387;-83
2023/01/23 00:15:28;;;;;;;24.40;7.10;;;;;;;0.13;100.00;102695.02;106252;1290;71430;-83
2023/01/23 00:17:54;;;;;;;27.20;7.50;;;;;;;0.13;100.00;102698.50;106223;1291;58390;-83
2023/01/23 00:20:19;;;;;;;29.50;6.90;;;;;;;0.12;100.00;102698.61;106218;1291;58721;-83
2023/01/23 00:22:45;;;;;;;23.30;6.90;;;;;;;0.12;100.00;102701.45;106227;1291;58372;-85
2023/01/23 00:25:10;;;;;;;24.10;7.10;;;;;;;0.14;100.00;102702.88;106341;1289;58387;-84
2023/01/23 00:27:36;;;;;;;23.80;6.50;;;;;;;0.14;100.00;102704.98;106192;1292;61264;-83
2023/01/23 00:30:02;;;;;;;27.00;6.40;;;;;;;0.13;100.00;102706.62;106454;1288;58346;-83
2023/01/23 00:32:27;;;;;;;19.80;6.80;;;;;;;0.14;100.00;102703.44;106501;1288;58285;-83
2023/01/23 00:34:53;;;;;;;21.60;6.60;;;;;;;0.14;100.00;102706.05;106239;1289;58466;-83
2023/01/23 00:37:18;;;;;;;25.70;7.30;;;;;;;0.15;100.00;102707.23;106433;1288;58450;-84
2023/01/23 00:43:05;;;;;;;22.80;7.00;;;;;;;0.12;100.00;102703.91;106714;1286;72468;-84
2023/01/23 00:45:31;;;;;;;19.40;6.50;;;;;;;0.10;100.00;102706.20;106729;1286;58674;-83
2023/01/23 00:47:56;;;;;;;25.00;6.80;;;;;;;0.10;100.00;102704.11;106707;1286;58335;-83
2023/01/23 00:50:22;;;;;;;19.70;5.70;;;;;;;0.08;100.00;102701.87;106527;1286;58312;-83
2023/01/23 01:02:52;;;;;;;23.50;6.80;;;;;;;0.09;100.00;102706.54;106831;1285;59804;-83
2023/01/23 01:05:17;;;;;;;19.60;6.60;;;;;;;0.10;100.00;102709.05;106449;1288;58453;-82
2023/01/23 01:11:05;;;;;;;24.40;6.70;;;;;;;0.09;100.00;102705.48;106470;1288;72004;-84
2023/01/23 01:13:31;;;;;;;23.20;6.50;;;;;;;0.08;100.00;102709.74;106387;1289;58253;-83
2023/01/23 01:19:18;;;;;;;20.30;5.50;;;;;;;0.09;100.00;102705.84;106435;1288;59453;-83
2023/01/23 01:21:44;;;;;;;17.80;5.50;;;;;;;0.07;100.00;102705.96;106374;1289;58314;-83
2023/01/23 01:24:09;;;;;;;13.30;4.90;;;;;;;0.09;100.00;102704.24;106372;1289;58659;-83
2023/01/23 01:26:35;;;;;;;20.20;5.10;;;;;;;0.10;100.00;102701.82;106453;1288;58388;-83
2023/01/23 01:35:43;;;;;;;18.70;5.60;;;;;;;0.07;100.00;102699.27;106492;1286;73655;-83
2023/01/23 01:38:09;;;;;;;23.60;5.70;;;;;;;0.07;100.00;102701.53;106963;1285;58247;-83
2023/01/23 01:43:58;;;;;;;24.70;5.30;;;;;;;0.07;100.00;102704.22;106935;1285;60784;-83
2023/01/23 01:46:28;;;;;;;22.20;5.50;;;;;;;0.07;100.00;102705.64;106961;1284;60006;-83
2023/01/23 01:52:19;;;;;;;28.00;5.10;;;;;;;0.08;100.00;102701.33;106968;1285;73248;-84
2023/01/23 01:54:53;;;;;;;16.80;4.70;;;;;;;0.06;100.00;102696.84;106738;1285;72420;-82
2023/01/23 01:57:26;;;;;;;18.20;4.60;;;;;;;0.06;100.00;102695.48;106695;1285;61794;-84
2023/01/23 01:59:55;;;;;;;;;;;;;;;0.05;100.00;102696.47;106776;1285;59149;-83
2023/01/23 02:02:31;;;;;;;16.40;5.40;;;;;;;0.06;100.00;102698.86;106967;1284;74750;-83
2023/01/23 02:05:01;;;;;;;18.50;5.20;;;;;;;0.06;100.00;102700.27;107001;1284;72978;-84
2023/01/23 02:10:48;;;;;;;12.80;4.20;;;;;;;0.05;100.00;102692.77;106965;1284;60985;-83
2023/01/23 02:13:37;;;;;;;17.80;4.70;;;;;;;0.03;100.00;102692.36;106962;1285;58575;-83
2023/01/23 02:16:18;;;;;;;19.10;5.10;;;;;;;0.03;100.00;102694.02;106787;1284;74636;-83
2023/01/23 02:18:47;;;;;;;23.90;4.60;;;;;;;0.05;100.00;102694.89;106698;1285;74221;-83
2023/01/23 02:24:41;;;;;;;15.40;4.30;;;;;;;0.02;100.00;102696.02;106954;1284;59774;-83
2023/01/23 02:27:07;;;;;;;10.80;4.60;;;;;;;0.04;100.00;102696.06;106517;1288;60028;-83
2023/01/23 02:32:54;;;;;;;15.10;4.90;;;;;;;0.04;100.00;102698.52;106970;1284;72503;-83
2023/01/23 02:35:29;;;;;;;21.70;4.60;;;;;;;0.02;100.00;102698.30;106964;1284;59124;-84
2023/01/23 02:37:59;;;;;;;17.80;4.20;;;;;;;0.03;100.00;102699.27;106718;1284;62055;-83
2023/01/23 02:40:35;;;;;;;14.50;4.50;;;;;;;0.01;100.00;102698.58;106730;1285;60887;-84
2023/01/23 02:43:05;;;;;;;14.70;4.50;;;;;;;0.00;100.00;102696.54;106759;1286;72804;-83
2023/01/23 02:45:31;;;;;;;16.70;4.40;;;;;;;0.02;100.00;102697.43;106982;1284;72494;-83
2023/01/23 02:47:56;;;;;;;18.20;4.60;;;;;;;0.03;100.00;102703.73;106748;1284;58262;-84
2023/01/23 03:00:27;;;;;;;21.80;4.60;;;;;;;-0.02;100.00;102711.77;106960;1285;73185;-83
2023/01/23 03:06:14;;;;;;;13.20;4.00;;;;;;;0.00;100.00;102709.08;106957;1284;59921;-83
2023/01/23 03:08:46;;;;;;;19.60;4.10;;;;;;;0.02;100.00;102714.39;106987;1284;58222;-84
2023/01/23 03:11:14;;;;;;;13.90;4.20;;;;;;;0.01;100.00;102716.94;106967;1285;73670;-82
2023/01/23 03:13:40;;;;;;;16.60;4.60;;;;;;;0.02;100.00;102718.33;106594;1286;73307;-83
2023/01/23 03:16:06;;;;;;;20.80;4.80;;;;;;;0.00;100.00;102718.24;106713;1284;58286;-84
2023/01/23 03:18:32;;;;;;;19.50;4.40;;;;;;;-0.02;100.00;102718.43;106954;1284;58079;-83
2023/01/23 03:24:20;;;;;;;23.90;4.80;;;;;;;-0.06;100.00;102724.23;106487;1288;74175;-83
2023/01/23 03:26:47;;;;;;;19.80;4.50;;;;;;;-0.05;100.00;102725.98;106380;1289;58218;-83
2023/01/23 03:32:33;;;;;;;18.50;4.20;;;;;;;-0.14;100.00;102730.08;106484;1288;60833;-83
2023/01/23 03:34:59;;;;;;;17.10;4.50;;;;;;;-0.15;100.00;102729.65;106391;1289;58479;-83
2023/01/23 03:37:24;;;;;;;22.60;5.00;;;;;;;-0.18;100.00;102727.52;106497;1288;58406;-83
2023/01/23 03:42:35;;;;;;;26.70;5.40;;;;;;;-0.21;100.00;102727.77;106235;1288;71656;-83
2023/01/23 03:45:01;;;;;;;13.60;4.50;;;;;;;-0.26;100.00;102732.05;106476;1288;58263;-83
2023/01/23 03:47:26;;;;;;;15.10;4.50;;;;;;;-0.28;100.00;102734.40;106488;1288;58376;-83
2023/01/23 03:49:52;;;;;;;15.00;4.30;;;;;;;-0.32;100.00;102731.32;106428;1289;58370;-83
2023/01/23 03:52:18;;;;;;;12.80;4.70;;;;;;;-0.36;100.00;102734.39;106574;1288;58593;-84
2023/01/23 03:54:43;;;;;;;22.40;4.70;;;;;;;-0.40;100.00;102736.70;106875;1285;59044;-82
2023/01/23 03:57:09;;;;;;;19.70;4.80;;;;;;;-0.41;100.00;102739.75;106772;1285;58593;-83
2023/01/23 03:59:35;;;;;;;21.50;4.80;;;;;;;-0.42;100.00;102734.05;106792;1285;58652;-82
2023/01/23 04:08:44;;;;;;;27.20;5.40;;;;;;;-0.50;100.00;102742.92;106959;1285;60628;-82
2023/01/23 04:11:11;;;;;;;21.10;4.70;;;;;;;-0.51;100.00;102742.55;106864;1285;58323;-83
2023/01/23 04:13:36;;;;;;;19.30;5.20;;;;;;;-0.55;100.00;102740.09;106565;1286;58233;-82
2023/01/23 08:07:45;;;;;;;69.10;20.20;;;;;;;-1.95;100.00;102938.14;103588;1295;600347;-82
2023/01/23 08:10:11;;;;;;;65.90;18.70;;;;;;;-1.85;100.00;102942.62;103017;1292;60418;-83
2023/01/23 08:12:37;;;;;;;53.90;16.10;;;;;;;-1.74;100.00;102939.86;102827;1298;60387;-80
2023/01/23 08:15:04;;;;;;;52.00;16.10;;;;;;;-1.66;100.00;102939.77;103388;1292;60402;-83
2023/01/23 08:17:30;;;;;;;52.90;15.90;;;;;;;-1.55;100.00;102939.10;102833;1295;60434;-81
2023/01/23 08:19:55;;;;;;;52.60;15.20;;;;;;;-1.43;100.00;102941.46;103266;1298;60501;-78
2023/01/23 08:22:21;;;;;;;52.40;15.40;;;;;;;-1.38;100.00;102941.08;103031;1289;243827;-83
2023/01/23 08:24:47;;;;;;;53.10;14.90;;;;;;;-1.35;100.00;102938.02;103703;1289;60434;-83
2023/01/23 08:27:13;;;;;;;50.40;14.60;;;;;;;-1.30;100.00;102940.98;103194;1294;60354;-84
2023/01/23 08:29:38;;;;;;;54.40;13.10;;;;;;;-1.23;100.00;102940.23;102748;1297;60524;-83
2023/01/23 08:32:05;;;;;;;57.20;15.90;;;;;;;-1.22;100.00;102940.09;102854;1299;60421;-83
2023/01/23 08:37:50;;;;;;;47.40;14.10;;;;;;;-1.14;100.00;102946.86;103934;1283;600223;-82
2023/01/23 08:40:16;;;;;;;47.00;15.00;;;;;;;-1.08;100.00;102945.73;104060;1285;61160;-83
2023/01/23 08:42:42;;;;;;;52.40;14.70;;;;;;;-1.07;100.00;102948.60;103670;1292;60316;-80
2023/01/23 08:45:08;;;;;;;46.50;15.00;;;;;;;-1.03;100.00;102949.32;103962;1286;60464;-81
2023/01/23 08:47:35;;;;;;;49.40;14.90;;;;;;;-1.02;100.00;102948.73;103727;1285;60393;-81
2023/01/23 08:50:02;;;;;;;57.20;17.50;;;;;;;-0.95;100.00;102947.31;103602;1286;60483;-80
2023/01/23 08:52:28;;;;;;;51.90;14.70;;;;;;;-0.96;100.00;102952.27;103510;1284;248357;-82
2023/01/23 08:54:54;;;;;;;44.00;13.40;;;;;;;-0.93;100.00;102952.77;103734;1290;60428;-81
2023/01/23 08:57:19;;;;;;;47.00;13.20;;;;;;;-0.96;100.00;102954.21;103801;1286;61081;-79
2023/01/23 08:59:45;;;;;;;57.50;14.30;;;;;;;-0.97;100.00;102956.22;103753;1286;60377;-79
2023/01/23 09:02:11;;;;;;;45.40;14.70;;;;;;;-0.95;100.00;102955.92;103756;1285;63339;-81
2023/01/23 09:04:37;;;;;;;42.20;12.60;;;;;;;-0.95;100.00;102960.63;103901;1285;60535;-80
2023/01/23 09:07:03;;;;;;;43.20;15.20;;;;;;;-1.00;100.00;102956.48;103521;1291;60980;-81
2023/01/23 09:09:29;;;;;;;51.30;14.10;;;;;;;-0.98;100.00;102958.30;103513;1291;60975;-80
2023/01/23 09:11:55;;;;;;;53.60;14.50;;;;;;;-0.98;100.00;102955.30;103428;1287;60473;-81
2023/01/23 09:14:20;;;;;;;47.80;15.30;;;;;;;-1.01;100.00;102956.06;103825;1285;60388;-81
2023/01/23 09:16:46;;;;;;;48.40;16.50;;;;;;;-1.01;100.00;102961.89;103556;1286;60550;-79
2023/01/23 09:19:11;;;;;;;44.50;13.90;;;;;;;-0.99;100.00;102960.30;103884;1288;60325;-81
2023/01/23 09:21:37;;;;;;;61.10;15.30;;;;;;;-0.98;100.00;102961.25;103979;1286;60399;-84
2023/01/23 09:24:03;;;;;;;43.20;12.80;;;;;;;-0.99;100.00;102962.80;103218;1289;60271;-83
2023/01/23 09:26:29;;;;;;;43.70;13.80;;;;;;;-1.02;100.00;102964.03;103058;1289;60790;-82
2023/01/23 09:28:55;;;;;;;52.10;14.70;;;;;;;-1.04;100.00;102963.70;103353;1286;60577;-83
2023/01/23 09:31:21;;;;;;;46.70;15.30;;;;;;;-1.00;100.00;102964.98;103453;1286;60571;-82
2023/01/23 09:33:48;;;;;;;50.80;13.50;;;;;;;-0.99;100.00;102968.92;103074;1293;60635;-91
2023/01/23 09:36:13;;;;;;;53.40;15.30;;;;;;;-1.01;100.00;102965.42;106327;1285;60700;-83
2023/01/23 09:38:39;;;;;;;67.80;15.30;;;;;;;-1.03;100.00;102963.78;106381;1285;58050;-84
2023/01/23 09:41:18;;;;;;;49.00;16.00;;;;;;;-1.03;100.00;102964.15;106296;1288;58304;-84
2023/01/23 09:43:56;;;;;;;44.40;13.90;;;;;;;-0.94;100.00;102961.97;106183;1288;73635;-84
2023/01/23 09:46:27;;;;;;;52.20;15.40;;;;;;;-0.88;100.00;102964.41;106246;1289;60778;-84
2023/01/23 09:49:13;;;;;;;36.60;14.40;;;;;;;-0.83;100.00;102965.22;106049;1291;60744;-84
2023/01/23 09:51:51;;;;;;;39.80;12.90;;;;;;;-0.82;100.00;102966.85;106039;1291;72516;-83
2023/01/23 09:54:43;;;;;;;38.60;14.40;;;;;;;-0.79;100.00;102966.07;106157;1291;74382;-85
2023/01/23 09:57:23;;;;;;;46.30;15.70;;;;;;;-0.79;100.00;102965.59;105945;1294;73118;-81
2023/01/23 10:00:03;;;;;;;45.60;15.30;;;;;;;-0.67;100.00;102962.27;105905;1294;62535;-81
2023/01/23 10:02:29;;;;;;;42.40;14.40;;;;;;;-0.60;100.00;102962.94;106101;1291;60378;-80
2023/01/23 10:04:57;;;;;;;41.80;13.80;;;;;;;-0.63;100.00;102959.13;105933;1291;58217;-82
2023/01/23 10:07:52;;;;;;;41.30;13.50;;;;;;;-0.63;100.00;102955.63;105931;1291;72424;-81
2023/01/23 10:10:24;;;;;;;34.30;12.00;;;;;;;-0.67;100.00;102960.85;105647;1297;73237;-82
2023/01/23 10:13:12;;;;;;;38.40;12.30;;;;;;;-0.64;100.00;102961.52;105484;1299;61765;-81
2023/01/23 10:15:53;;;;;;;40.90;12.80;;;;;;;-0.64;100.00;102950.50;105639;1298;60109;-81
2023/01/23 10:18:53;;;;;;;33.00;12.60;;;;;;;-0.54;100.00;102950.05;105697;1297;73177;-81
2023/01/23 10:22:03;;;;;;;45.10;13.90;;;;;;;-0.53;100.00;102946.13;105977;1293;74551;-80
2023/01/23 10:24:28;;;;;;;36.00;11.80;;;;;;;-0.40;100.00;102944.14;105962;1293;73365;-79
2023/01/23 10:26:59;;;;;;;33.60;11.80;;;;;;;-0.38;100.00;102942.05;105998;1293;58271;-82
2023/01/23 10:29:33;;;;;;;32.60;12.00;;;;;;;-0.40;100.00;102935.98;106141;1291;59827;-81
2023/01/23 10:32:01;;;;;;;39.60;11.90;;;;;;;-0.38;100.00;102935.36;106174;1291;71978;-81
2023/01/23 10:34:36;;;;;;;44.60;12.80;;;;;;;-0.47;100.00;102933.91;106024;1291;74284;-85
2023/01/23 10:37:20;;;;;;;35.90;11.80;;;;;;;-0.55;100.00;102933.91;106151;1291;71370;-81
2023/01/23 10:39:58;;;;;;;37.80;11.90;;;;;;;-0.58;100.00;102927.78;106035;1291;61818;-78
2023/01/23 10:42:26;;;;;;;35.80;12.60;;;;;;;-0.50;100.00;102925.71;106136;1291;61085;-82
2023/01/23 10:44:52;;;;;;;31.80;12.20;;;;;;;-0.44;100.00;102927.34;105828;1294;74087;-81
2023/01/23 10:47:27;;;;;;;37.30;11.90;;;;;;;-0.36;100.00;102925.58;106118;1285;74339;-80
2023/01/23 10:49:52;;;;;;;33.70;12.40;;;;;;;-0.31;100.00;102925.02;106552;1286;72814;-81
2023/01/23 10:52:42;;;;;;;39.40;12.10;;;;;;;-0.33;100.00;102925.89;106747;1285;58284;-80
2023/01/23 10:55:30;;;;;;;33.00;12.00;;;;;;;-0.29;100.00;102924.80;106272;1288;60964;-83
2023/01/23 10:58:03;;;;;;;37.20;12.30;;;;;;;-0.29;100.00;102921.61;106294;1288;73906;-84
2023/01/23 11:00:35;;;;;;;;;;;;;;;-0.26;100.00;102921.02;106267;1288;73607;-82
2023/01/23 11:03:34;;;;;;;39.50;12.30;;;;;;;-0.26;100.00;102916.06;106089;1292;71911;-83
2023/01/23 11:06:04;;;;;;;35.60;11.50;;;;;;;-0.23;100.00;102912.97;105670;1297;62228;-80
2023/01/23 11:08:39;;;;;;;28.20;11.10;;;;;;;-0.23;100.00;102911.27;105600;1297;58865;-79
2023/01/23 11:11:13;;;;;;;32.60;11.20;;;;;;;-0.15;100.00;102913.94;105619;1298;71584;-82
2023/01/23 11:13:40;;;;;;;33.70;11.20;;;;;;;-0.17;100.00;102910.60;105713;1297;74137;-80
2023/01/23 11:16:05;;;;;;;33.70;12.50;;;;;;;-0.23;100.00;102913.36;105626;1294;73355;-81
2023/01/23 11:18:41;;;;;;;35.10;12.20;;;;;;;-0.26;100.00;102911.89;105899;1294;58065;-80
2023/01/23 11:21:19;;;;;;;34.10;12.50;;;;;;;-0.36;100.00;102921.05;105902;1294;61085;-80
2023/01/23 11:23:45;;;;;;;24.20;10.00;;;;;;;-0.37;100.00;102918.98;105773;1296;73959;-82
2023/01/23 11:26:30;;;;;;;32.40;10.60;;;;;;;-0.44;100.00;102918.71;105887;1294;58573;-81
2023/01/23 11:28:56;;;;;;;34.10;10.80;;;;;;;-0.48;100.00;102921.81;105806;1296;71282;-87
2023/01/23 11:31:25;;;;;;;29.90;10.70;;;;;;;-0.48;100.00;102920.63;105736;1297;58696;-81
2023/01/23 11:33:58;;;;;;;33.40;12.70;;;;;;;-0.46;100.00;102919.69;105672;1294;58962;-80
2023/01/23 11:36:31;;;;;;;37.10;10.70;;;;;;;-0.42;100.00;102923.11;105817;1294;72752;-80
2023/01/23 11:39:02;;;;;;;33.40;10.60;;;;;;;-0.35;100.00;102924.45;105866;1294;74340;-82
2023/01/23 11:41:33;;;;;;;38.80;10.90;;;;;;;-0.27;100.00;102920.63;105795;1295;72850;-80
2023/01/23 11:44:06;;;;;;;43.20;11.20;;;;;;;-0.27;100.00;102925.73;106246;1287;62965;-80
2023/01/23 11:46:34;;;;;;;34.90;10.10;;;;;;;-0.21;100.00;102922.37;106503;1288;60578;-81
2023/01/23 11:49:28;;;;;;;34.50;11.60;;;;;;;-0.20;100.00;102918.42;106335;1287;73011;-82
2023/01/23 11:52:18;;;;;;;36.60;10.80;;;;;;;-0.21;100.00;102920.60;105827;1294;74787;-82
2023/01/23 11:54:57;;;;;;;35.50;11.50;;;;;;;-0.13;100.00;102925.08;105947;1293;72252;-83
2023/01/23 11:57:43;;;;;;;39.50;12.80;;;;;;;-0.15;100.00;102926.27;106010;1293;62803;-79
2023/01/23 12:00:18;;;;;;;34.30;11.30;;;;;;;-0.13;100.00;102925.24;106103;1291;60575;-79
2023/01/23 12:03:01;;;;;;;38.60;12.30;;;;;;;-0.13;100.00;102922.41;106064;1291;73549;-77
2023/01/23 12:05:42;;;;;;;36.70;13.00;;;;;;;-0.11;100.00;102923.27;106172;1291;73441;-80
2023/01/23 12:08:31;;;;;;;46.80;12.80;;;;;;;-0.06;100.00;102920.73;106131;1291;73419;-77
2023/01/23 12:11:12;;;;;;;50.90;13.30;;;;;;;-0.06;100.00;102920.70;106143;1291;60818;-77
2023/01/23 12:13:57;;;;;;;37.90;11.70;;;;;;;-0.05;100.00;102923.45;106264;1290;60850;-78
2023/01/23 12:17:03;;;;;;;39.10;11.60;;;;;;;-0.07;100.00;102927.56;106151;1290;73128;-79
2023/01/23 12:19:49;;;;;;;32.30;11.00;;;;;;;-0.12;100.00;102923.54;106055;1290;74414;-80
2023/01/23 12:22:29;;;;;;;32.40;11.00;;;;;;;-0.16;100.00;102921.77;106239;1290;72865;-80
2023/01/23 12:25:02;;;;;;;34.70;11.20;;;;;;;-0.18;100.00;102921.27;106254;1291;60158;-80
2023/01/23 12:27:42;;;;;;;35.90;12.10;;;;;;;-0.16;100.00;102925.83;106176;1290;61103;-79
2023/01/23 12:30:49;;;;;;;34.00;12.50;;;;;;;-0.08;100.00;102928.85;106870;1283;73063;-79
2023/01/23 12:33:31;;;;;;;28.10;10.70;;;;;;;-0.07;100.00;102935.35;106277;1291;74475;-81
2023/01/23 12:36:03;;;;;;;27.20;10.70;;;;;;;-0.19;100.00;102938.10;106178;1291;72731;-83
2023/01/23 12:38:46;;;;;;;33.80;10.20;;;;;;;-0.26;100.00;102938.84;106245;1291;61958;-80
2023/01/23 12:41:33;;;;;;;32.90;11.20;;;;;;;-0.33;100.00;102940.74;106234;1291;59946;-80
2023/01/23 12:44:10;;;;;;;37.10;11.30;;;;;;;-0.32;100.00;102944.35;106167;1291;72823;-80
2023/01/23 12:47:02;;;;;;;42.80;12.70;;;;;;;-0.32;100.00;102942.56;106183;1291;74716;-84
2023/01/23 12:49:48;;;;;;;38.30;12.10;;;;;;;-0.41;100.00;102940.83;105552;1298;73509;-80
2023/01/23 12:52:29;;;;;;;31.40;11.20;;;;;;;-0.37;100.00;102945.99;105659;1299;61772;-82
2023/01/23 12:55:05;;;;;;;35.60;11.10;;;;;;;-0.34;100.00;102942.06;105598;1299;61058;-82
2023/01/23 12:57:50;;;;;;;45.60;13.50;;;;;;;-0.32;100.00;102945.73;105561;1298;74023;-82
2023/01/23 13:00:31;;;;;;;50.40;15.90;;;;;;;-0.34;100.00;102947.67;105520;1299;74380;-82
2023/01/23 13:03:21;;;;;;;39.30;12.50;;;;;;;-0.32;100.00;102946.47;105487;1299;73384;-83
2023/01/23 13:05:54;;;;;;;31.50;11.20;;;;;;;-0.33;100.00;102948.09;105527;1299;61792;-86
2023/01/23 13:08:32;;;;;;;33.80;12.90;;;;;;;-0.35;100.00;102946.77;105543;1299;61003;-82
2023/01/23 13:11:39;;;;;;;44.60;13.20;;;;;;;-0.29;100.00;102949.95;106030;1294;73735;-80
2023/01/23 17:14:19;;;;;;;68.10;22.60;;;;;;;-5.98;100.00;102991.52;104125;1280;616334;-82
2023/01/23 17:20:04;;;;;;;64.10;21.70;;;;;;;-5.91;100.00;102988.00;103150;1290;600107;-84
2023/01/23 17:22:37;;;;;;;64.50;23.20;;;;;;;-5.87;100.00;102983.34;102985;1298;60451;-89
2023/01/23 17:28:40;;;;;;;63.30;21.20;;;;;;;-5.69;100.00;102989.11;103281;1295;70832;-85
2023/01/23 17:34:57;;;;;;;59.20;21.60;;;;;;;-5.40;100.00;102985.87;102946;1290;616932;-83
2023/01/23 17:37:23;;;;;;;52.20;19.60;;;;;;;-5.31;100.00;102988.33;102761;1299;62557;-83
2023/01/23 17:39:52;;;;;;;49.20;20.20;;;;;;;-5.24;100.00;102987.33;102762;1293;60460;-84
2023/01/23 17:42:18;;;;;;;67.00;23.10;;;;;;;-5.14;100.00;102985.80;102961;1293;73645;-83
2023/01/23 17:44:43;;;;;;;65.80;23.70;;;;;;;-4.99;100.00;102981.35;103006;1295;60918;-83
2023/01/23 17:47:12;;;;;;;65.80;23.70;;;;;;;-4.82;100.00;102978.49;97505;1296;10270162;-80
2023/01/23 17:50:05;;;;;;;64.10;24.30;;;;;;;-4.66;100.00;102976.05;103671;1283;60414;-83
2023/01/23 17:52:30;;;;;;;72.50;26.20;;;;;;;-4.49;100.00;102967.61;106026;1291;73814;-89
2023/01/23 17:54:56;;;;;;;83.70;28.10;;;;;;;-4.31;100.00;102968.64;106074;1292;58684;-83
2023/01/23 17:57:21;;;;;;;69.20;26.40;;;;;;;-4.13;100.00;102970.05;105957;1292;58253;-81
2023/01/23 17:59:47;;;;;;;78.30;25.80;;;;;;;-3.96;100.00;102969.44;106023;1292;58493;-83
2023/01/23 18:02:26;;;;;;;77.80;25.20;;;;;;;-3.83;100.00;102972.36;105907;1292;58291;-82
2023/01/23 18:04:51;;;;;;;72.60;25.50;;;;;;;-3.69;100.00;102967.14;106109;1292;73316;-80
2023/01/23 18:10:39;;;;;;;76.20;28.70;;;;;;;-3.33;100.00;102969.05;106131;1292;60278;-83
2023/01/23 18:13:16;;;;;;;79.60;29.50;;;;;;;-3.20;100.00;102967.05;106058;1293;58658;-82
2023/01/23 18:15:54;;;;;;;80.60;31.10;;;;;;;-3.07;100.00;102966.86;105946;1292;72358;-89
2023/01/23 18:18:30;;;;;;;83.70;30.10;;;;;;;-2.97;100.00;102964.14;105998;1294;73380;-89
2023/01/23 18:20:56;;;;;;;91.00;33.80;;;;;;;-2.89;100.00;102961.95;105986;1292;71296;-83
2023/01/23 18:23:23;;;;;;;101.50;38.10;;;;;;;-2.81;100.00;102962.98;105724;1292;62865;-80
2023/01/23 18:26:02;;;;;;;115.70;38.10;;;;;;;-2.73;100.00;102961.67;105763;1293;60025;-83
2023/01/23 18:28:38;;;;;;;112.00;38.10;;;;;;;-2.66;100.00;102958.52;106021;1294;73911;-82
2023/01/23 18:31:14;;;;;;;119.20;40.90;;;;;;;-2.59;100.00;102963.27;106407;1288;74382;-81
2023/01/23 18:33:49;;;;;;;107.90;40.10;;;;;;;-2.52;100.00;102962.91;106272;1288;73465;-84
2023/01/23 18:36:56;;;;;;;103.50;36.80;;;;;;;-2.45;100.00;102957.30;106357;1288;63160;-82
2023/01/23 18:39:33;;;;;;;116.40;40.60;;;;;;;-2.39;100.00;102956.88;106470;1288;60193;-81
2023/01/23 18:45:21;;;;;;;96.30;33.20;;;;;;;-2.31;100.00;102962.23;106441;1288;73307;-88
2023/01/23 18:47:46;;;;;;;75.00;28.80;;;;;;;-2.28;100.00;102958.82;106386;1288;58118;-83
2023/01/23 18:50:18;;;;;;;81.20;27.90;;;;;;;-2.25;100.00;102962.46;106451;1288;58342;-80
2023/01/23 18:53:05;;;;;;;72.10;25.70;;;;;;;-2.24;100.00;102966.83;106467;1288;59866;-83
2023/01/23 18:59:15;;;;;;;59.60;21.50;;;;;;;-2.16;100.00;102962.36;107022;1283;73074;-80
2023/01/23 19:01:52;;;;;;;59.60;22.90;;;;;;;-2.16;100.00;102961.05;107047;1283;73688;-86
2023/01/23 19:04:23;;;;;;;56.10;17.90;;;;;;;-2.13;100.00;102959.77;107007;1283;61921;-83
2023/01/23 19:10:20;;;;;;;51.90;16.80;;;;;;;-2.03;100.00;102955.15;107001;1283;71541;-82
2023/01/23 19:13:00;;;;;;;42.30;15.20;;;;;;;-2.00;100.00;102956.15;106803;1283;72303;-82
2023/01/23 19:15:33;;;;;;;35.50;13.20;;;;;;;-1.95;100.00;102954.77;107043;1283;73272;-82
2023/01/23 19:18:16;;;;;;;;;;;;;;;-1.90;100.00;102957.11;107043;1283;61743;-82
2023/01/23 19:24:18;;;;;;;33.50;12.10;;;;;;;-1.79;100.00;102958.79;107052;1283;72945;-82
2023/01/23 19:26:44;;;;;;;34.90;12.00;;;;;;;-1.73;100.00;102962.04;106361;1283;71170;-83
2023/01/23 19:32:31;;;;;;;41.00;13.20;;;;;;;-1.60;100.00;102965.92;107036;1283;61820;-83
2023/01/23 19:34:58;;;;;;;39.60;13.60;;;;;;;-1.55;100.00;102960.20;107057;1283;58145;-82
2023/01/23 19:37:24;;;;;;;47.70;14.10;;;;;;;-1.52;100.00;102957.18;106776;1283;58150;-81
2023/01/23 19:39:51;;;;;;;32.80;12.00;;;;;;;-1.48;100.00;102955.80;107063;1283;58127;-83
2023/01/23 19:42:16;;;;;;;31.60;10.30;;;;;;;-1.44;100.00;102954.71;107028;1283;58058;-83
2023/01/23 19:44:43;;;;;;;33.70;11.20;;;;;;;-1.37;100.00;102953.82;107051;1283;58140;-83
2023/01/23 19:50:30;;;;;;;25.30;9.70;;;;;;;-1.25;100.00;102953.98;107008;1283;72809;-87
2023/01/23 19:52:57;;;;;;;34.30;10.20;;;;;;;-1.23;100.00;102955.33;107064;1283;58152;-83
2023/01/23 19:55:26;;;;;;;28.60;10.00;;;;;;;-1.21;100.00;102956.95;106603;1289;58195;-82
2023/01/23 19:57:52;;;;;;;28.30;9.70;;;;;;;-1.18;100.00;102955.65;106757;1283;61402;-81
2023/01/23 20:00:18;;;;;;;31.50;10.30;;;;;;;-1.14;100.00;102956.75;106578;1283;60272;-82
2023/01/23 20:02:44;;;;;;;28.00;10.20;;;;;;;-1.10;100.00;102958.02;107073;1283;58174;-83
2023/01/23 20:08:32;;;;;;;26.80;10.30;;;;;;;-1.06;100.00;102957.20;107047;1283;72377;-80
2023/01/23 20:10:57;;;;;;;25.50;9.60;;;;;;;-1.03;100.00;102956.41;106444;1288;58363;-82
2023/01/23 20:13:23;;;;;;;32.90;11.30;;;;;;;-1.02;100.00;102955.48;106412;1288;58148;-83
2023/01/23 20:15:49;;;;;;;33.90;10.50;;;;;;;-1.01;100.00;102956.77;106464;1288;58145;-82
2023/01/23 20:18:16;;;;;;;31.70;10.70;;;;;;;-1.01;100.00;102956.77;106395;1288;58302;-83
2023/01/23 20:20:42;;;;;;;32.80;10.60;;;;;;;-0.99;100.00;102959.23;106333;1288;58879;-82
2023/01/23 20:23:08;;;;;;;39.90;10.90;;;;;;;-0.98;100.00;102958.97;106251;1288;58599;-83
2023/01/23 20:25:34;;;;;;;32.50;11.10;;;;;;;-0.94;100.00;102963.61;106512;1288;58021;-82
2023/01/23 20:27:59;;;;;;;33.40;11.40;;;;;;;-0.89;100.00;102962.88;106367;1288;73539;-83
2023/01/23 20:30:25;;;;;;;34.50;12.70;;;;;;;-0.88;100.00;102961.05;106479;1288;58206;-82
2023/01/23 20:36:12;;;;;;;46.60;11.70;;;;;;;-0.86;100.00;102970.55;106475;1288;58845;-81
2023/01/23 20:38:39;;;;;;;31.70;10.90;;;;;;;-0.84;100.00;102970.88;106351;1288;58098;-83
2023/01/23 20:41:17;;;;;;;34.10;10.80;;;;;;;-0.83;100.00;102970.11;106281;1288;58534;-83
2023/01/23 20:44:11;;;;;;;35.90;11.60;;;;;;;-0.82;100.00;102973.04;106815;1283;72265;-83
2023/01/23 20:49:39;;;;;;;30.10;11.30;;;;;;;-0.77;100.00;102972.95;107046;1285;58712;-83
2023/01/23 20:55:09;;;;;;;39.00;11.50;;;;;;;-0.69;100.00;102977.81;106665;1286;73338;-83
2023/01/23 21:00:19;;;;;;;31.50;10.20;;;;;;;-0.61;100.00;102977.29;106690;1286;60193;-83
2023/01/23 21:02:45;;;;;;;36.00;10.70;;;;;;;-0.59;100.00;102977.83;106282;1286;58220;-85
2023/01/23 21:05:10;;;;;;;32.80;9.50;;;;;;;-0.56;100.00;102976.70;106535;1286;58167;-89
2023/01/23 21:07:36;;;;;;;28.00;8.60;;;;;;;-0.53;100.00;102976.31;106693;1286;58514;-82
2023/01/23 21:10:02;;;;;;;30.80;8.90;;;;;;;-0.49;100.00;102977.16;106671;1286;58181;-83
2023/01/23 21:12:27;;;;;;;34.30;9.40;;;;;;;-0.47;100.00;102977.38;106518;1289;60117;-83
2023/01/23 21:14:53;;;;;;;27.20;8.80;;;;;;;-0.44;100.00;102975.18;106326;1290;58230;-83
2023/01/23 21:17:18;;;;;;;23.80;8.00;;;;;;;-0.42;100.00;102973.77;106354;1292;58310;-83
2023/01/23 21:19:45;;;;;;;27.10;8.40;;;;;;;-0.41;100.00;102973.52;106377;1289;58396;-84